Time;durP1;ratioP1;P1;durP2;ratioP2;P2;SDS_P1;SDS_P2;PMS_P1;PMS_P2;Temp;Humidity;BMP_temperature;BMP_pressure;BME280_temperature;BME280_humidity;BME280_pressure;Samples;Min_cycle;Max_cycle;Signal;HPM_P1;HPM_P2
2023/07/07 00:01:07;;;;;;;14.15;7.95;;;;;;;15.13;100.00;101853.09;5035603;28;20654;-71
2023/07/07 00:03:33;;;;;;;12.80;8.15;;;;;;;15.13;100.00;101851.28;5030501;28;20041;-71
2023/07/07 00:05:59;;;;;;;13.65;7.57;;;;;;;15.08;100.00;101855.22;5030262;28;20048;-74
2023/07/07 00:08:24;;;;;;;10.15;8.48;;;;;;;14.99;100.00;101854.00;5032227;28;20041;-73
2023/07/07 00:10:50;;;;;;;11.77;8.20;;;;;;;14.94;100.00;101859.69;5029569;28;20100;-72
2023/07/07 00:13:16;;;;;;;15.48;8.05;;;;;;;14.89;100.00;101860.94;5030156;28;20087;-71
2023/07/07 00:15:44;;;;;;;10.13;8.63;;;;;;;14.88;100.00;101868.16;5033244;28;20040;-71
2023/07/07 00:18:10;;;;;;;8.98;6.22;;;;;;;14.74;100.00;101862.78;5030020;28;20041;-74
2023/07/07 00:20:36;;;;;;;8.45;5.95;;;;;;;14.68;100.00;101866.75;5033911;28;20052;-71
2023/07/07 00:23:02;;;;;;;7.50;6.80;;;;;;;14.64;100.00;101867.03;5032734;28;20060;-74
2023/07/07 00:25:27;;;;;;;10.82;6.78;;;;;;;14.61;100.00;101865.44;5037577;28;20073;-72
2023/07/07 00:27:53;;;;;;;11.30;8.65;;;;;;;14.60;100.00;101871.72;5033377;28;20033;-71
2023/07/07 00:30:18;;;;;;;12.30;8.90;;;;;;;14.67;100.00;101870.41;5030761;28;20036;-72
2023/07/07 00:32:44;;;;;;;12.43;8.35;;;;;;;14.65;100.00;101876.81;5029542;28;20076;-72
2023/07/07 00:35:09;;;;;;;11.63;6.40;;;;;;;14.51;100.00;101872.34;5029283;28;20087;-71
2023/07/07 00:37:35;;;;;;;8.63;7.72;;;;;;;14.43;100.00;101877.28;5030463;28;20466;-72
2023/07/07 00:40:03;;;;;;;15.57;9.27;;;;;;;14.45;100.00;101872.66;5031404;28;20086;-72
2023/07/07 00:42:28;;;;;;;9.60;8.15;;;;;;;14.49;100.00;101875.09;5037722;28;20025;-72
2023/07/07 00:45:10;;;;;;;9.82;8.15;;;;;;;14.56;100.00;101874.69;5032796;28;20498;-72
2023/07/07 00:47:42;;;;;;;10.82;8.02;;;;;;;14.52;100.00;101882.13;5062190;28;20045;-72
2023/07/07 00:50:10;;;;;;;11.77;8.48;;;;;;;14.53;100.00;101875.78;5038205;28;20057;-72
2023/07/07 00:52:40;;;;;;;17.80;9.13;;;;;;;14.42;100.00;101870.19;5033008;28;20067;-72
2023/07/07 00:55:11;;;;;;;11.77;9.65;;;;;;;14.38;100.00;101880.25;5034344;28;20048;-72
2023/07/07 00:57:37;;;;;;;14.88;8.95;;;;;;;14.34;100.00;101877.84;5039350;28;20033;-72
2023/07/07 01:00:03;;;;;;;12.05;8.73;;;;;;;14.36;100.00;101875.97;5033646;28;20455;-72
2023/07/07 01:02:29;;;;;;;14.75;9.70;;;;;;;14.42;100.00;101870.19;5027858;28;20033;-72
2023/07/07 01:05:00;;;;;;;12.00;8.38;;;;;;;14.30;100.00;101882.53;5034592;28;20029;-72
2023/07/07 01:07:36;;;;;;;9.90;7.72;;;;;;;14.32;100.00;101872.59;5029334;28;20025;-72
2023/07/07 01:10:02;;;;;;;15.38;9.02;;;;;;;14.28;100.00;101872.88;5028394;28;20167;-72
2023/07/07 01:12:27;;;;;;;10.63;8.60;;;;;;;14.23;100.00;101876.72;5032185;28;20123;-72
2023/07/07 01:14:53;;;;;;;11.90;8.45;;;;;;;14.22;100.00;101872.31;5030296;28;20912;-72
2023/07/07 01:17:21;;;;;;;9.20;7.97;;;;;;;14.23;100.00;101870.47;5032440;28;20044;-71
2023/07/07 01:19:56;;;;;;;14.88;8.32;;;;;;;14.17;100.00;101876.22;5032010;28;20092;-71
2023/07/07 01:22:51;;;;;;;11.68;8.68;;;;;;;14.13;100.00;101872.00;5030282;28;20030;-72
2023/07/07 01:25:32;;;;;;;12.07;9.05;;;;;;;14.20;100.00;101870.66;5037286;28;20046;-72
2023/07/07 01:28:20;;;;;;;14.70;9.73;;;;;;;14.15;100.00;101864.72;5027542;28;20037;-72
2023/07/07 01:31:07;;;;;;;12.77;9.45;;;;;;;14.05;100.00;101863.56;5033055;28;20095;-72
2023/07/07 01:33:34;;;;;;;12.52;8.57;;;;;;;13.97;100.00;101864.91;5027930;28;20496;-72
2023/07/07 01:36:00;;;;;;;16.30;9.30;;;;;;;13.90;100.00;101876.09;5028487;28;20553;-72
2023/07/07 01:38:44;;;;;;;11.57;8.82;;;;;;;13.96;100.00;101870.38;5039261;28;20041;-72
2023/07/07 01:41:28;;;;;;;19.92;10.40;;;;;;;13.91;100.00;101873.34;5037948;28;20067;-72
2023/07/07 01:44:14;;;;;;;12.02;9.23;;;;;;;13.86;100.00;101871.88;5030926;28;20144;-72
2023/07/07 01:46:49;;;;;;;12.48;8.23;;;;;;;13.80;100.00;101874.91;5035628;28;20068;-72
2023/07/07 01:49:21;;;;;;;9.88;8.73;;;;;;;13.72;100.00;101860.16;5028666;28;20045;-71
2023/07/07 01:51:54;;;;;;;10.05;6.18;;;;;;;13.67;100.00;101861.41;5035757;28;20829;-72
2023/07/07 01:54:21;;;;;;;9.43;8.52;;;;;;;13.67;100.00;101859.59;5037821;28;20353;-72
2023/07/07 01:56:48;;;;;;;12.63;9.13;;;;;;;13.66;100.00;101859.69;5031115;28;20034;-72
2023/07/07 01:59:15;;;;;;;11.25;9.38;;;;;;;13.65;100.00;101863.28;5041744;28;20040;-72
2023/07/07 02:01:42;;;;;;;11.95;8.55;;;;;;;13.69;100.00;101868.38;5029533;28;20033;-71
2023/07/07 02:04:08;;;;;;;11.10;9.20;;;;;;;13.67;100.00;101864.94;5031869;28;20103;-72
2023/07/07 02:06:33;;;;;;;12.27;9.60;;;;;;;13.64;100.00;101869.63;5035643;28;20037;-72
2023/07/07 02:08:59;;;;;;;10.52;9.35;;;;;;;13.62;100.00;101867.03;5031489;28;20791;-72
2023/07/07 02:11:24;;;;;;;13.73;10.02;;;;;;;13.60;100.00;101860.88;5035153;28;20120;-72
2023/07/07 02:13:50;;;;;;;14.80;9.68;;;;;;;13.62;100.00;101864.38;5036893;28;20045;-72
2023/07/07 02:16:16;;;;;;;13.32;9.98;;;;;;;13.58;100.00;101862.81;5033944;28;20037;-72
2023/07/07 02:18:41;;;;;;;11.05;9.95;;;;;;;13.55;100.00;101876.38;5030755;28;20040;-72
2023/07/07 02:21:07;;;;;;;12.48;9.05;;;;;;;13.53;100.00;101880.97;5033031;28;20579;-71
2023/07/07 02:23:34;;;;;;;12.90;10.20;;;;;;;13.50;100.00;101875.78;5044591;28;21514;-72
2023/07/07 02:26:00;;;;;;;9.40;8.45;;;;;;;13.44;100.00;101876.16;5031565;28;20955;-71
2023/07/07 02:28:26;;;;;;;11.27;8.38;;;;;;;13.37;100.00;101878.34;5067978;28;20048;-72
2023/07/07 02:30:54;;;;;;;12.23;7.70;;;;;;;13.37;100.00;101870.31;5039154;28;20103;-72
2023/07/07 02:33:19;;;;;;;15.52;9.57;;;;;;;13.43;100.00;101871.75;5034339;28;20034;-72
2023/07/07 02:35:48;;;;;;;13.18;9.95;;;;;;;13.43;100.00;101877.13;5032373;28;20041;-72
2023/07/07 02:38:14;;;;;;;9.60;8.55;;;;;;;13.41;100.00;101877.22;5038278;28;20148;-72
2023/07/07 02:40:42;;;;;;;14.15;10.75;;;;;;;13.42;100.00;101878.09;5032503;28;20116;-71
2023/07/07 02:43:07;;;;;;;14.93;11.02;;;;;;;13.31;100.00;101878.72;5031455;28;20918;-72
2023/07/07 02:45:33;;;;;;;13.32;10.02;;;;;;;13.27;100.00;101876.28;5034946;28;20048;-72
2023/07/07 02:47:58;;;;;;;12.52;8.93;;;;;;;13.23;100.00;101880.09;5040213;28;20047;-71
2023/07/07 02:50:24;;;;;;;13.02;8.90;;;;;;;13.25;100.00;101871.00;5032097;28;20107;-71
2023/07/07 02:52:50;;;;;;;10.88;8.98;;;;;;;13.28;100.00;101880.69;5030025;28;20049;-71
2023/07/07 02:55:15;;;;;;;10.38;9.27;;;;;;;13.26;100.00;101880.78;5030966;28;20044;-72
2023/07/07 02:57:41;;;;;;;13.35;10.93;;;;;;;13.32;100.00;101882.25;5031561;28;20052;-71
2023/07/07 03:00:09;;;;;;;10.18;8.32;;;;;;;13.15;100.00;101884.06;5036133;28;20030;-72
2023/07/07 03:02:35;;;;;;;11.40;9.07;;;;;;;13.16;100.00;101891.13;5033526;28;20227;-72
2023/07/07 03:05:00;;;;;;;9.70;8.70;;;;;;;13.15;100.00;101886.75;5062809;28;20037;-72
2023/07/07 03:07:26;;;;;;;11.98;7.68;;;;;;;13.10;100.00;101891.50;5035937;28;20045;-72
2023/07/07 03:09:53;;;;;;;12.38;8.63;;;;;;;13.09;100.00;101891.56;5030101;28;20471;-71
2023/07/07 03:12:18;;;;;;;11.13;8.63;;;;;;;13.05;100.00;101893.56;5033277;28;20018;-71
2023/07/07 03:14:43;;;;;;;12.52;10.32;;;;;;;13.08;100.00;101890.69;5041088;28;20046;-72
2023/07/07 03:17:10;;;;;;;10.50;9.18;;;;;;;13.14;100.00;101893.03;5068446;28;20034;-71
2023/07/07 03:19:42;;;;;;;11.45;9.30;;;;;;;13.12;100.00;101894.94;5064319;28;20040;-71
2023/07/07 03:22:14;;;;;;;14.25;10.50;;;;;;;13.16;100.00;101888.47;5032940;28;20156;-72
2023/07/07 03:24:51;;;;;;;15.68;11.75;;;;;;;13.13;100.00;101891.31;5036418;28;20103;-72
2023/07/07 03:27:41;;;;;;;12.45;10.77;;;;;;;13.08;100.00;101885.34;5067923;28;20151;-71
2023/07/07 03:30:13;;;;;;;13.60;10.65;;;;;;;13.12;100.00;101889.59;5034376;28;20656;-71
2023/07/07 03:32:57;;;;;;;21.95;10.55;;;;;;;13.27;100.00;101892.38;5041591;28;20151;-72
2023/07/07 03:35:25;;;;;;;17.60;11.27;;;;;;;13.33;100.00;101898.22;5031791;28;20030;-72
2023/07/07 03:37:50;;;;;;;13.57;11.43;;;;;;;13.34;100.00;101893.72;5031645;28;20037;-72
2023/07/07 03:40:17;;;;;;;14.70;10.82;;;;;;;13.44;100.00;101897.59;5034473;28;21056;-71
2023/07/07 03:42:43;;;;;;;12.82;10.90;;;;;;;13.68;100.00;101897.97;5044316;28;20044;-72
2023/07/07 03:45:10;;;;;;;11.23;9.45;;;;;;;14.20;100.00;101895.66;5064922;28;20038;-70
2023/07/07 03:47:36;;;;;;;14.38;9.82;;;;;;;14.81;100.00;101887.41;5032428;28;20897;-72
2023/07/07 03:50:03;;;;;;;7.93;7.13;;;;;;;15.33;100.00;101889.41;5032844;28;20040;-72
2023/07/07 03:52:32;;;;;;;11.07;7.72;;;;;;;15.84;100.00;101879.66;5026400;28;21067;-71
2023/07/07 03:54:58;;;;;;;10.57;7.45;;;;;;;16.31;100.00;101888.91;5062632;28;20067;-72
2023/07/07 03:57:23;;;;;;;9.77;8.23;;;;;;;16.77;99.81;101880.28;5030424;28;20857;-72
2023/07/07 03:59:49;;;;;;;11.05;6.63;;;;;;;17.17;97.54;101877.31;5039250;28;20044;-72
2023/07/07 04:02:15;;;;;;;7.75;6.43;;;;;;;17.58;94.26;101885.00;5042760;28;20064;-72
2023/07/07 04:04:42;;;;;;;8.60;7.68;;;;;;;18.02;90.76;101880.72;5029532;28;20083;-72
2023/07/07 04:07:07;;;;;;;10.15;9.15;;;;;;;18.45;88.48;101880.03;5029748;28;20030;-72
2023/07/07 04:09:33;;;;;;;11.18;7.07;;;;;;;18.76;84.75;101890.09;5033072;28;20065;-72
2023/07/07 04:11:58;;;;;;;7.38;5.70;;;;;;;19.08;82.23;101892.91;5031408;28;20285;-72
2023/07/07 04:14:28;;;;;;;6.72;5.85;;;;;;;19.41;79.76;101885.66;5036192;28;20038;-72
2023/07/07 04:16:53;;;;;;;10.85;8.15;;;;;;;19.95;78.51;101886.53;5034479;28;20061;-72
2023/07/07 04:19:20;;;;;;;10.23;8.50;;;;;;;20.39;76.35;101886.22;5028747;28;20029;-72
2023/07/07 04:21:46;;;;;;;9.18;8.00;;;;;;;20.78;73.87;101889.06;5035192;28;20079;-72
2023/07/07 04:24:11;;;;;;;10.25;7.95;;;;;;;21.06;72.03;101884.75;5030725;28;20553;-72
2023/07/07 04:26:38;;;;;;;10.27;8.10;;;;;;;21.45;70.32;101880.25;5031806;28;20029;-72
2023/07/07 04:29:04;;;;;;;8.82;7.32;;;;;;;21.86;68.84;101880.06;5033213;28;20033;-72
2023/07/07 04:31:30;;;;;;;8.90;7.30;;;;;;;22.15;66.60;101880.91;5036141;28;20045;-72
2023/07/07 04:33:56;;;;;;;8.55;7.65;;;;;;;22.54;65.79;101879.88;5033908;28;20064;-72
2023/07/07 04:36:22;;;;;;;9.25;8.30;;;;;;;22.80;64.56;101877.34;5029721;28;20029;-72
2023/07/07 04:38:49;;;;;;;9.02;7.80;;;;;;;23.15;63.00;101879.31;5029848;28;20088;-73
2023/07/07 04:41:25;;;;;;;10.45;8.55;;;;;;;23.50;61.73;101878.47;5034618;28;20061;-72
2023/07/07 04:43:53;;;;;;;8.13;6.90;;;;;;;23.81;61.58;101878.06;5029758;28;20107;-72
2023/07/07 04:46:27;;;;;;;10.77;8.38;;;;;;;24.06;60.85;101874.50;5032251;28;20044;-72
2023/07/07 04:48:52;;;;;;;14.77;9.60;;;;;;;24.47;59.72;101872.88;5040411;28;20590;-72
2023/07/07 04:51:18;;;;;;;13.10;10.13;;;;;;;24.76;58.83;101877.13;5032192;28;20122;-72
2023/07/07 04:53:44;;;;;;;9.23;8.25;;;;;;;25.16;58.75;101886.47;5028917;28;20370;-72
2023/07/07 04:56:16;;;;;;;11.70;9.43;;;;;;;25.61;57.41;101877.81;5030360;28;20156;-72
2023/07/07 04:58:43;;;;;;;13.32;10.27;;;;;;;25.68;56.13;101881.56;5029760;28;20038;-72
2023/07/07 05:01:12;;;;;;;13.18;9.93;;;;;;;25.47;56.45;101873.88;5030192;28;20140;-73
2023/07/07 05:03:40;;;;;;;14.82;9.98;;;;;;;25.69;56.04;101872.34;5029419;28;20152;-72
2023/07/07 05:06:06;;;;;;;12.43;8.82;;;;;;;26.11;55.00;101870.47;5029730;28;20145;-72
2023/07/07 05:08:34;;;;;;;16.70;10.68;;;;;;;26.67;53.86;101876.81;5029545;28;20042;-72
2023/07/07 05:11:00;;;;;;;12.95;9.93;;;;;;;27.09;51.95;101884.66;5039143;28;20042;-74
2023/07/07 05:13:26;;;;;;;11.40;10.25;;;;;;;27.54;52.15;101872.00;5028997;28;20099;-73
2023/07/07 05:16:00;;;;;;;13.73;9.77;;;;;;;27.39;51.64;101876.59;5029141;28;20441;-71
2023/07/07 05:18:26;;;;;;;11.90;9.30;;;;;;;25.36;54.69;101879.69;5028937;28;20080;-71
2023/07/07 05:20:51;;;;;;;11.55;8.82;;;;;;;25.72;56.00;101884.81;5034653;28;20124;-73
2023/07/07 05:23:17;;;;;;;14.25;8.90;;;;;;;24.72;58.00;101884.75;5039494;28;20052;-73
2023/07/07 05:25:44;;;;;;;10.20;8.32;;;;;;;23.65;61.77;101901.44;5045684;28;20033;-71
2023/07/07 05:28:10;;;;;;;12.38;8.70;;;;;;;23.17;63.62;101907.22;5034765;28;20038;-73
2023/07/07 05:30:38;;;;;;;18.27;9.35;;;;;;;23.16;63.02;101906.34;5040848;28;20033;-71
2023/07/07 05:33:04;;;;;;;12.20;9.20;;;;;;;23.43;64.33;101901.84;5042129;28;20052;-74
2023/07/07 05:35:29;;;;;;;13.85;9.48;;;;;;;25.04;60.67;101889.47;5041053;28;20041;-71
2023/07/07 05:37:54;;;;;;;13.82;9.77;;;;;;;25.85;58.40;101893.38;5072978;27;20054;-71
2023/07/07 05:40:20;;;;;;;13.48;10.57;;;;;;;25.98;56.66;101899.16;5070112;27;20037;-74
2023/07/07 05:42:46;;;;;;;13.07;10.05;;;;;;;26.24;55.81;101896.22;5033461;28;20045;-71
2023/07/07 05:45:11;;;;;;;13.52;10.63;;;;;;;25.58;56.95;101902.75;5040569;28;20029;-72
2023/07/07 05:47:37;;;;;;;15.80;10.57;;;;;;;24.14;60.15;101903.66;5038930;28;20140;-71
2023/07/07 05:50:03;;;;;;;13.95;8.80;;;;;;;24.10;60.85;101902.25;5037997;28;20432;-74
2023/07/07 05:52:28;;;;;;;18.38;9.20;;;;;;;23.42;62.09;101903.72;5036495;28;20804;-71
2023/07/07 05:54:54;;;;;;;13.60;9.27;;;;;;;24.08;62.20;101902.44;5071715;27;20038;-71
2023/07/07 05:57:20;;;;;;;13.60;8.27;;;;;;;25.20;60.56;101899.63;5032367;28;20049;-72
2023/07/07 05:59:45;;;;;;;15.60;9.43;;;;;;;25.42;59.00;101892.66;5046505;28;20041;-71
2023/07/07 06:02:11;;;;;;;10.70;8.50;;;;;;;26.03;57.56;101898.66;5038328;28;20044;-71
2023/07/07 06:04:38;;;;;;;10.13;8.35;;;;;;;25.16;58.87;101900.97;5033951;28;20057;-71
2023/07/07 06:07:04;;;;;;;13.85;9.05;;;;;;;25.54;59.73;101893.16;5038569;28;20037;-71
2023/07/07 06:09:29;;;;;;;11.73;8.73;;;;;;;24.59;60.23;101898.00;5038342;28;20037;-72
2023/07/07 06:11:55;;;;;;;12.52;8.98;;;;;;;25.09;61.09;101889.00;5037780;28;20055;-71
2023/07/07 06:14:21;;;;;;;11.32;8.32;;;;;;;24.44;61.65;101892.28;5040629;28;20040;-72
2023/07/07 06:16:49;;;;;;;13.48;8.30;;;;;;;23.98;61.17;101890.78;5030466;28;20040;-71
2023/07/07 06:19:15;;;;;;;12.27;8.45;;;;;;;24.44;60.79;101896.88;5036531;28;21326;-71
2023/07/07 06:21:41;;;;;;;11.15;7.93;;;;;;;24.13;62.68;101902.81;5036594;28;20135;-71
2023/07/07 06:24:06;;;;;;;11.25;7.80;;;;;;;24.48;63.67;101901.00;5043934;28;20038;-71
2023/07/07 06:26:32;;;;;;;10.38;7.00;;;;;;;24.03;61.44;101902.91;5036753;28;20852;-71
2023/07/07 06:28:58;;;;;;;9.88;7.32;;;;;;;24.00;61.04;101900.53;5047103;28;20069;-72
2023/07/07 06:31:23;;;;;;;12.98;7.88;;;;;;;23.99;61.15;101900.66;5034336;28;20065;-71
2023/07/07 06:33:49;;;;;;;14.25;8.57;;;;;;;24.16;60.51;101901.66;5041122;28;20029;-71
2023/07/07 06:36:15;;;;;;;17.05;8.35;;;;;;;24.34;59.82;101905.16;5035640;28;20060;-71
2023/07/07 06:38:40;;;;;;;12.18;7.93;;;;;;;24.53;58.94;101899.50;5044458;28;20036;-71
2023/07/07 06:41:11;;;;;;;14.32;8.02;;;;;;;24.61;59.23;101897.84;5047439;28;20042;-72
2023/07/07 06:43:37;;;;;;;15.95;8.25;;;;;;;25.00;59.27;101899.03;5042861;28;20045;-71
2023/07/07 06:46:03;;;;;;;16.65;8.85;;;;;;;25.40;57.67;101902.88;5036388;28;20038;-72
2023/07/07 06:48:28;;;;;;;18.83;9.18;;;;;;;25.21;55.09;101904.06;5041767;28;21035;-72
2023/07/07 06:50:54;;;;;;;17.73;9.20;;;;;;;25.20;57.38;101905.09;5044845;28;20604;-71
2023/07/07 06:53:19;;;;;;;20.67;10.38;;;;;;;25.45;55.80;101903.25;5037416;28;20049;-71
2023/07/07 06:55:45;;;;;;;18.50;8.73;;;;;;;25.14;56.57;101908.47;5032233;28;21126;-71
2023/07/07 06:58:14;;;;;;;18.85;9.40;;;;;;;25.13;56.32;101917.69;5045604;28;20043;-72
2023/07/07 07:00:42;;;;;;;15.93;8.52;;;;;;;24.95;56.96;101915.06;5050788;28;20091;-71
2023/07/07 07:03:08;;;;;;;19.23;9.82;;;;;;;25.28;56.31;101909.69;5034122;28;20136;-71
2023/07/07 07:05:34;;;;;;;16.23;8.25;;;;;;;25.78;58.37;101915.06;5040324;28;20565;-71
2023/07/07 07:07:59;;;;;;;19.60;9.02;;;;;;;25.67;60.45;101911.81;5040959;28;20879;-71
2023/07/07 07:10:25;;;;;;;18.83;9.20;;;;;;;25.79;61.96;101919.50;5040953;28;20040;-71
2023/07/07 07:12:50;;;;;;;20.63;9.23;;;;;;;25.86;55.15;101916.13;5032881;28;20760;-71
2023/07/07 07:15:16;;;;;;;19.25;10.20;;;;;;;25.67;55.19;101917.25;5044197;28;20040;-71
2023/07/07 07:17:41;;;;;;;19.92;10.05;;;;;;;25.64;55.10;101925.78;5035070;28;20033;-71
2023/07/07 07:20:10;;;;;;;19.90;10.52;;;;;;;25.12;56.71;101921.44;5044448;28;20763;-71
2023/07/07 07:22:35;;;;;;;21.23;9.93;;;;;;;25.36;55.65;101917.91;5044050;28;20039;-71
2023/07/07 07:25:01;;;;;;;15.82;9.05;;;;;;;25.28;56.97;101926.94;5042332;28;20455;-73
2023/07/07 07:27:27;;;;;;;19.73;10.00;;;;;;;25.83;57.47;101920.88;5027983;28;20046;-71
2023/07/07 07:29:52;;;;;;;18.20;9.82;;;;;;;25.95;58.18;101926.84;5035286;28;20046;-71
2023/07/07 07:32:18;;;;;;;16.30;8.90;;;;;;;26.05;57.64;101929.41;5030002;28;20038;-71
2023/07/07 07:34:44;;;;;;;22.00;9.98;;;;;;;25.96;58.35;101919.53;5041526;28;20032;-73
2023/07/07 07:37:10;;;;;;;20.00;8.00;;;;;;;26.16;59.33;101926.34;5036675;28;20029;-71
2023/07/07 07:39:36;;;;;;;13.93;6.97;;;;;;;26.23;56.73;101923.75;5038641;28;20132;-73
2023/07/07 07:42:02;;;;;;;12.98;6.38;;;;;;;26.45;54.77;101924.91;5038026;28;20054;-71
2023/07/07 07:44:28;;;;;;;14.30;6.50;;;;;;;26.10;55.12;101924.28;5033945;28;20104;-74
2023/07/07 07:46:56;;;;;;;11.43;5.00;;;;;;;26.43;53.02;101918.78;5035531;28;20033;-74
2023/07/07 07:49:23;;;;;;;10.82;5.82;;;;;;;25.86;52.88;101922.44;5033048;28;20025;-71
2023/07/07 07:51:49;;;;;;;14.68;5.43;;;;;;;25.93;54.84;101933.53;5031515;28;20038;-72
2023/07/07 07:54:18;;;;;;;13.93;5.05;;;;;;;25.97;53.92;101932.16;5034660;28;20040;-72
2023/07/07 07:56:45;;;;;;;14.27;4.85;;;;;;;25.90;52.29;101928.38;5040519;28;20086;-71
2023/07/07 07:59:13;;;;;;;9.38;5.22;;;;;;;25.91;52.47;101930.97;5033762;28;20116;-72
2023/07/07 08:01:39;;;;;;;14.48;5.10;;;;;;;26.38;51.89;101926.63;5033462;28;20352;-72
2023/07/07 08:04:05;;;;;;;8.30;4.25;;;;;;;26.24;48.60;101919.97;5043365;28;21109;-71
2023/07/07 08:06:31;;;;;;;7.15;4.15;;;;;;;26.25;50.17;101935.34;5034470;28;20025;-72
2023/07/07 08:08:57;;;;;;;8.98;4.13;;;;;;;26.15;48.99;101931.97;5039769;28;20041;-73
2023/07/07 08:11:48;;;;;;;10.20;4.10;;;;;;;25.98;50.55;101942.91;5034392;28;20051;-72
2023/07/07 08:14:17;;;;;;;5.93;3.45;;;;;;;26.51;51.74;101937.94;5039799;28;20731;-72
2023/07/07 08:16:44;;;;;;;6.97;3.75;;;;;;;26.44;49.35;101943.22;5048467;28;20044;-72
2023/07/07 08:19:10;;;;;;;8.80;4.00;;;;;;;26.26;54.07;101940.69;5044288;28;20032;-71
2023/07/07 08:21:36;;;;;;;7.20;4.15;;;;;;;26.26;50.99;101943.41;5046512;28;20561;-71
2023/07/07 08:24:02;;;;;;;15.05;5.32;;;;;;;26.56;54.05;101946.47;5049011;28;20740;-72
2023/07/07 08:26:28;;;;;;;7.05;3.75;;;;;;;26.48;50.39;101941.00;5042450;28;20025;-73
2023/07/07 08:28:53;;;;;;;11.75;3.78;;;;;;;26.50;48.32;101947.13;5042052;28;20783;-73
2023/07/07 08:31:19;;;;;;;7.80;3.55;;;;;;;26.40;50.27;101949.19;5041474;28;20086;-72
2023/07/07 08:33:48;;;;;;;7.57;3.70;;;;;;;26.44;51.84;101953.31;5036946;28;20025;-74
2023/07/07 08:36:13;;;;;;;7.45;3.20;;;;;;;26.61;50.39;101946.78;5037358;28;20061;-71
2023/07/07 08:38:39;;;;;;;11.52;4.47;;;;;;;26.40;49.23;101950.03;5039893;28;20695;-73
2023/07/07 08:41:05;;;;;;;9.48;3.90;;;;;;;26.93;47.81;101951.28;5037181;28;20035;-74
2023/07/07 08:43:31;;;;;;;6.78;3.35;;;;;;;26.55;50.85;101952.94;5045119;28;20044;-74
2023/07/07 08:46:16;;;;;;;9.00;3.08;;;;;;;26.44;48.84;101948.69;5039990;28;20162;-75
2023/07/07 08:49:03;;;;;;;7.40;3.40;;;;;;;26.79;49.30;101944.66;5040043;28;20043;-73
2023/07/07 08:51:42;;;;;;;4.90;3.22;;;;;;;26.48;48.19;101944.59;5041352;28;20041;-72
2023/07/07 08:54:35;;;;;;;6.20;3.05;;;;;;;26.92;49.24;101946.84;5030917;28;20042;-72
2023/07/07 08:57:08;;;;;;;7.35;3.60;;;;;;;26.92;50.69;101949.56;5043085;28;20657;-73
2023/07/07 08:59:56;;;;;;;7.05;3.00;;;;;;;26.66;48.85;101946.22;5028994;28;20033;-72
2023/07/07 09:02:41;;;;;;;7.80;3.47;;;;;;;26.29;46.63;101944.94;5038283;28;20115;-74
2023/07/07 09:05:12;;;;;;;8.55;2.80;;;;;;;26.33;47.06;101946.28;5038157;28;20111;-72
2023/07/07 09:07:37;;;;;;;6.32;3.45;;;;;;;26.99;47.42;101942.34;5040522;28;20045;-72
2023/07/07 09:10:24;;;;;;;6.38;3.10;;;;;;;27.16;48.42;101945.91;5043204;28;20041;-72
2023/07/07 09:12:59;;;;;;;5.20;2.85;;;;;;;26.79;47.24;101944.66;5038234;28;21069;-72
2023/07/07 09:15:29;;;;;;;9.15;2.97;;;;;;;27.19;47.51;101948.28;5037285;28;20626;-72
2023/07/07 09:18:25;;;;;;;8.43;3.40;;;;;;;27.21;50.02;101946.22;5039979;28;20033;-72
2023/07/07 09:20:57;;;;;;;7.18;2.65;;;;;;;26.58;46.36;101944.38;5036303;28;20076;-72
2023/07/07 09:23:29;;;;;;;7.25;2.72;;;;;;;26.62;47.26;101940.28;5063339;27;20052;-72
2023/07/07 09:26:08;;;;;;;5.05;3.38;;;;;;;26.82;47.36;101936.09;5040932;28;20041;-72
2023/07/07 09:28:45;;;;;;;5.78;3.00;;;;;;;27.04;47.37;101936.34;5041652;28;20041;-72
2023/07/07 09:31:20;;;;;;;4.50;2.90;;;;;;;26.96;46.49;101942.72;5040024;28;20041;-72
2023/07/07 09:33:45;;;;;;;4.13;2.67;;;;;;;26.67;47.13;101935.13;5037440;28;20158;-73
2023/07/07 09:36:27;;;;;;;7.35;3.38;;;;;;;26.89;47.56;101933.50;5039858;28;20103;-72
2023/07/07 09:39:27;;;;;;;6.97;3.10;;;;;;;26.98;46.38;101935.16;5042257;28;20172;-73
2023/07/07 09:42:27;;;;;;;6.35;3.00;;;;;;;26.94;45.69;101935.69;5039825;28;20473;-72
2023/07/07 09:45:29;;;;;;;5.65;3.03;;;;;;;26.82;46.21;101927.88;5024502;28;20048;-72
2023/07/07 09:48:11;;;;;;;8.73;2.63;;;;;;;26.74;47.02;101925.16;5033037;28;20053;-72
2023/07/07 09:50:54;;;;;;;6.25;3.00;;;;;;;26.64;47.39;101929.16;5039775;28;20439;-72
2023/07/07 09:53:25;;;;;;;5.85;2.65;;;;;;;26.81;48.19;101922.59;5037549;28;20067;-72
2023/07/07 09:55:52;;;;;;;4.60;2.85;;;;;;;27.16;48.05;101921.25;5041056;28;20040;-72
2023/07/07 09:58:27;;;;;;;5.18;2.83;;;;;;;27.21;49.22;101923.44;5036776;28;20045;-72
2023/07/07 10:00:59;;;;;;;5.30;3.08;;;;;;;26.84;44.35;101933.19;5031345;28;20060;-72
2023/07/07 10:03:44;;;;;;;7.70;4.03;;;;;;;26.89;43.83;101918.97;5037835;28;20067;-71
2023/07/07 10:06:27;;;;;;;8.25;3.03;;;;;;;27.42;45.87;101926.41;5041672;28;20037;-72
2023/07/07 10:08:53;;;;;;;3.92;2.35;;;;;;;27.74;48.33;101928.06;5041878;28;20111;-72
2023/07/07 10:11:25;;;;;;;3.13;2.38;;;;;;;27.80;44.61;101916.34;5040296;28;20088;-72
2023/07/07 10:13:52;;;;;;;6.68;3.17;;;;;;;27.32;46.30;101928.53;5044401;28;20033;-72
2023/07/07 10:16:44;;;;;;;4.32;2.92;;;;;;;27.68;44.24;101917.81;5044860;28;20041;-72
2023/07/07 10:19:12;;;;;;;6.15;2.63;;;;;;;28.02;48.46;101917.38;5038831;28;20043;-72
2023/07/07 10:21:39;;;;;;;6.20;2.75;;;;;;;27.94;42.63;101922.91;5037036;28;20092;-73
2023/07/07 10:24:05;;;;;;;5.57;2.83;;;;;;;28.05;46.29;101919.72;5050041;28;20042;-73
2023/07/07 10:26:31;;;;;;;9.10;2.72;;;;;;;27.72;43.01;101916.44;5044936;28;20161;-73
2023/07/07 10:29:02;;;;;;;4.28;2.45;;;;;;;27.96;42.62;101912.59;5035830;28;20515;-72
2023/07/07 10:31:28;;;;;;;4.63;2.70;;;;;;;28.33;45.94;101910.88;5039208;28;20107;-73
2023/07/07 10:34:02;;;;;;;5.97;2.90;;;;;;;27.96;44.51;101912.59;5036731;28;20910;-72
2023/07/07 10:36:30;;;;;;;4.68;2.97;;;;;;;27.74;42.18;101911.63;5036782;28;20229;-72
2023/07/07 10:38:57;;;;;;;4.60;2.78;;;;;;;27.80;44.57;101912.75;5047667;28;20047;-72
2023/07/07 10:41:23;;;;;;;5.85;2.88;;;;;;;27.55;42.69;101912.06;5043931;28;20041;-73
2023/07/07 10:43:52;;;;;;;8.00;2.75;;;;;;;27.29;42.62;101909.69;5036479;28;20064;-72
2023/07/07 10:46:18;;;;;;;7.15;2.63;;;;;;;27.16;41.05;101914.91;5034132;28;20105;-72
2023/07/07 10:48:44;;;;;;;6.57;3.03;;;;;;;27.42;42.98;101912.69;5043052;28;20555;-72
2023/07/07 10:51:28;;;;;;;4.57;2.50;;;;;;;27.95;44.31;101899.94;5039303;28;20151;-72
2023/07/07 10:54:08;;;;;;;5.05;2.70;;;;;;;28.07;42.44;101905.84;5038024;28;20120;-72
2023/07/07 10:56:56;;;;;;;5.72;3.00;;;;;;;27.80;40.15;101910.03;5051679;28;20036;-72
2023/07/07 10:59:27;;;;;;;8.90;2.72;;;;;;;28.04;41.43;101908.94;5044456;28;20107;-72
2023/07/07 11:02:20;;;;;;;4.82;2.50;;;;;;;28.40;41.84;101903.63;5033314;28;20127;-72
2023/07/07 11:05:10;;;;;;;7.90;3.47;;;;;;;27.80;40.50;101905.38;5032151;28;20167;-71
2023/07/07 11:08:23;;;;;;;3.70;2.78;;;;;;;27.74;42.95;101910.75;5032749;28;20107;-72
2023/07/07 11:10:48;;;;;;;4.45;2.65;;;;;;;27.57;39.70;101904.53;5029527;28;20247;-72
2023/07/07 11:13:38;;;;;;;4.30;2.95;;;;;;;27.32;41.77;101907.44;5025024;28;20053;-72
2023/07/07 11:16:34;;;;;;;7.63;3.33;;;;;;;27.38;41.22;101907.75;5034845;28;20190;-71
2023/07/07 11:19:06;;;;;;;6.03;2.83;;;;;;;28.17;43.51;101883.63;5015367;28;20057;-72
2023/07/07 11:21:46;;;;;;;4.30;2.67;;;;;;;28.11;42.59;101885.22;5044942;28;20695;-73
2023/07/07 11:24:28;;;;;;;3.67;2.55;;;;;;;27.98;40.05;101898.72;5031718;28;20038;-72
2023/07/07 11:26:56;;;;;;;;;;;;;;;27.81;42.19;101890.66;5024131;28;20052;-73
2023/07/07 11:29:35;;;;;;;4.07;2.92;;;;;;;27.65;42.09;101884.41;5018957;28;19920;-72